Princeton, Maine
Current Conditions -  °F | °C
As of 5:53 AM on Saturday 25 Oct 2014 (Local Time) from KMLT Reporting Station
Overcast Overcast  
Wind Chill: 43°   Ceiling: 4100
Heat Index: 45°   Visibility: 10mi
Dew Point: 38°   Wind: 5mph
Humidity: 76%   Direction: 290°WNW
Pressure: 29.65"   Gusts: NA
Location:  45.22°N, 67.57°W
Report Text: KMLT 250953Z AUTO 29004KT 10SM OVC041 07/03 A2965 RMK AO2 SLP046 T00720033
Loading
Personal Weather Stations






























Interactive Weather Map
Tropical Storm Tracking
New forecast layout! Learn more

10-Day Weather Forecast

Advertisements
Track Severe Weather on mobile